createdAt,value
2018-12-25T00:01:33.010Z,64.69
2018-12-25T00:03:52.553Z,64.76
2018-12-25T00:06:12.150Z,64.82
2018-12-25T00:08:31.520Z,64.82
2018-12-25T00:10:50.976Z,64.76
2018-12-25T00:13:10.334Z,64.65
2018-12-25T00:15:29.848Z,64.65
2018-12-25T00:17:51.732Z,64.72
2018-12-25T00:20:12.467Z,64.81
2018-12-25T00:22:32.160Z,64.87
2018-12-25T00:24:55.549Z,64.96
2018-12-25T00:27:14.689Z,65.08
2018-12-25T00:29:34.324Z,65.10
2018-12-25T00:31:53.689Z,65.09
2018-12-25T00:34:12.850Z,65.03
2018-12-25T00:36:32.138Z,65.00
2018-12-25T00:38:52.215Z,65.05
2018-12-25T00:41:11.920Z,65.06
2018-12-25T00:43:32.086Z,65.09
2018-12-25T00:45:51.723Z,65.20
2018-12-25T00:48:11.639Z,65.21
2018-12-25T00:50:31.632Z,65.28
2018-12-25T00:52:51.057Z,65.32
2018-12-25T00:55:38.536Z,65.24
2018-12-25T00:57:55.607Z,65.09
2018-12-25T01:00:14.814Z,65.02
2018-12-25T01:02:34.196Z,64.96
2018-12-25T01:04:53.761Z,64.91
2018-12-25T01:07:13.421Z,64.81
2018-12-25T01:09:33.068Z,64.80
2018-12-25T01:11:52.356Z,64.79
2018-12-25T01:14:11.708Z,64.84
2018-12-25T01:18:49.643Z,65.06
2018-12-25T01:21:11.646Z,65.11
2018-12-25T01:23:31.531Z,65.08
2018-12-25T01:25:51.258Z,65.01
2018-12-25T01:28:09.368Z,64.91
2018-12-25T01:30:29.087Z,64.83
2018-12-25T01:32:48.660Z,64.82
2018-12-25T01:35:07.927Z,64.81
2018-12-25T01:37:27.588Z,64.81
2018-12-25T01:39:47.092Z,64.76
2018-12-25T01:42:06.601Z,64.88
2018-12-25T01:44:25.970Z,64.98
2018-12-25T01:46:45.354Z,65.02
2018-12-25T01:49:04.588Z,65.08
2018-12-25T01:51:12.457Z,65.20
2018-12-25T01:53:29.707Z,65.26
2018-12-25T01:55:48.547Z,65.26
2018-12-25T01:58:08.133Z,65.27
2018-12-25T02:00:27.354Z,65.29
2018-12-25T02:02:46.853Z,65.33
2018-12-25T02:05:06.410Z,65.33
2018-12-25T02:07:26.183Z,65.23
2018-12-25T02:09:45.953Z,65.11
2018-12-25T02:12:05.186Z,65.04
2018-12-25T02:14:24.954Z,65.04
2018-12-25T02:16:44.559Z,65.02
2018-12-25T02:19:04.181Z,64.96
2018-12-25T02:21:22.262Z,64.91
2018-12-25T02:23:41.751Z,65.03
2018-12-25T02:26:01.096Z,65.15
2018-12-25T02:28:20.201Z,65.24
2018-12-25T02:30:27.966Z,65.37
2018-12-25T02:32:47.503Z,65.39
2018-12-25T02:35:07.309Z,65.35
2018-12-25T02:37:26.337Z,65.36
2018-12-25T02:39:46.103Z,65.27
2018-12-25T02:42:05.180Z,65.30
2018-12-25T02:44:25.027Z,65.41
2018-12-25T02:46:44.920Z,65.47
2018-12-25T02:49:03.983Z,65.53
2018-12-25T02:51:23.841Z,65.54
2018-12-25T02:53:42.794Z,65.53
2018-12-25T02:56:21.431Z,65.50
2018-12-25T02:58:42.551Z,65.50
2018-12-25T03:01:02.415Z,65.51
2018-12-25T03:03:21.934Z,65.57
2018-12-25T03:05:41.459Z,65.59
2018-12-25T03:08:01.621Z,65.62
2018-12-25T03:10:21.548Z,65.66
2018-12-25T03:12:40.731Z,65.63
2018-12-25T03:15:00.533Z,65.55
2018-12-25T03:17:19.857Z,65.51
2018-12-25T03:19:39.104Z,65.51
2018-12-25T03:21:58.513Z,65.51
2018-12-25T03:24:17.892Z,65.49
2018-12-25T03:26:37.114Z,65.54
2018-12-25T03:28:56.608Z,65.54
2018-12-25T03:31:16.394Z,65.51
2018-12-25T03:33:36.697Z,65.44
2018-12-25T03:35:56.472Z,65.33
2018-12-25T03:38:15.812Z,65.20
2018-12-25T03:40:35.331Z,65.21
2018-12-25T03:42:54.990Z,65.29
2018-12-25T03:45:14.147Z,65.37
2018-12-25T03:47:33.618Z,65.47
2018-12-25T03:49:53.053Z,65.47
2018-12-25T03:52:12.454Z,65.46
2018-12-25T03:54:32.184Z,65.48
2018-12-25T03:56:51.490Z,65.43
2018-12-25T03:59:10.751Z,65.35
2018-12-25T04:01:30.197Z,65.33
2018-12-25T04:03:48.171Z,65.42
2018-12-25T04:06:07.943Z,65.51
2018-12-25T04:08:26.900Z,65.59
2018-12-25T04:10:46.375Z,65.55
2018-12-25T04:13:05.807Z,65.49
2018-12-25T04:15:25.004Z,65.50
2018-12-25T04:17:44.824Z,65.51
2018-12-25T04:20:04.471Z,65.46
2018-12-25T04:22:24.326Z,65.42
2018-12-25T04:24:43.996Z,65.35
2018-12-25T04:27:03.922Z,65.25
2018-12-25T04:29:23.074Z,65.17
2018-12-25T04:31:42.450Z,65.07
2018-12-25T04:34:01.881Z,65.03
2018-12-25T04:36:20.961Z,64.94
2018-12-25T04:38:40.426Z,64.95
2018-12-25T04:41:00.374Z,64.98
2018-12-25T04:43:20.423Z,65.01
2018-12-25T04:45:39.991Z,65.00
2018-12-25T04:47:59.638Z,65.01
2018-12-25T04:50:19.274Z,65.06
2018-12-25T04:52:38.611Z,65.14
2018-12-25T04:54:58.130Z,65.25
2018-12-25T04:57:17.095Z,65.27
2018-12-25T04:59:36.188Z,65.34
2018-12-25T05:01:55.301Z,65.48
2018-12-25T05:04:14.890Z,65.57
2018-12-25T05:06:34.304Z,65.60
2018-12-25T05:08:53.763Z,65.56
2018-12-25T05:11:11.703Z,65.58
2018-12-25T05:13:30.852Z,65.61
2018-12-25T05:15:48.729Z,65.69
2018-12-25T05:18:08.307Z,65.71
2018-12-25T05:20:26.260Z,65.72
2018-12-25T05:22:45.661Z,65.71
2018-12-25T05:24:53.708Z,65.66
2018-12-25T05:27:13.094Z,65.63
2018-12-25T05:29:32.619Z,65.61
2018-12-25T05:31:51.619Z,65.56
2018-12-25T05:34:11.719Z,65.50
2018-12-25T05:36:30.973Z,65.46
2018-12-25T05:38:50.667Z,65.51
2018-12-25T05:41:10.054Z,65.55
2018-12-25T05:43:29.518Z,65.54
2018-12-25T05:45:49.075Z,65.59
2018-12-25T05:48:08.522Z,65.66
2018-12-25T05:50:28.683Z,65.65
2018-12-25T05:52:48.262Z,65.62
2018-12-25T05:55:07.150Z,65.55
2018-12-25T05:57:26.130Z,65.59
2018-12-25T05:59:45.107Z,65.60
2018-12-25T06:02:05.048Z,65.57
2018-12-25T06:04:24.540Z,65.56
2018-12-25T06:06:43.972Z,65.63
2018-12-25T06:09:04.385Z,65.67
2018-12-25T06:11:23.826Z,65.70
2018-12-25T06:13:41.828Z,65.76
2018-12-25T06:16:01.198Z,65.73
2018-12-25T06:18:20.231Z,65.59
2018-12-25T06:20:39.874Z,65.48
2018-12-25T06:22:59.581Z,65.35
2018-12-25T06:25:18.854Z,65.35
2018-12-25T06:27:38.491Z,65.36
2018-12-25T06:29:56.308Z,65.34
2018-12-25T06:32:16.264Z,65.30
2018-12-25T06:34:35.667Z,65.28
2018-12-25T06:36:55.270Z,65.29
2018-12-25T06:39:14.896Z,65.36
2018-12-25T06:41:34.475Z,65.41
2018-12-25T06:43:54.223Z,65.48
2018-12-25T06:46:13.483Z,65.54
2018-12-25T06:48:32.682Z,65.59
2018-12-25T06:50:52.179Z,65.59
2018-12-25T06:53:11.544Z,65.59
2018-12-25T06:55:31.081Z,65.55
2018-12-25T06:57:50.337Z,65.56
2018-12-25T07:00:08.347Z,65.53
2018-12-25T07:02:28.215Z,65.49
2018-12-25T07:04:47.360Z,65.42
2018-12-25T07:07:06.663Z,65.34
2018-12-25T07:09:25.673Z,65.25
2018-12-25T07:11:45.088Z,65.20
2018-12-25T07:14:04.434Z,65.15
2018-12-25T07:16:23.905Z,65.16
2018-12-25T07:18:43.162Z,65.24
2018-12-25T07:21:02.280Z,65.27
2018-12-25T07:23:21.966Z,65.35
2018-12-25T07:25:41.227Z,65.39
2018-12-25T07:28:00.563Z,65.46
2018-12-25T07:30:19.627Z,65.54
2018-12-25T07:32:38.985Z,65.61
2018-12-25T07:34:58.679Z,65.73
2018-12-25T07:37:17.827Z,65.80
2018-12-25T07:39:37.398Z,65.82
2018-12-25T07:41:56.611Z,65.76
2018-12-25T07:44:16.083Z,65.65
2018-12-25T07:46:35.868Z,65.52
2018-12-25T07:48:55.602Z,65.50
2018-12-25T07:51:20.650Z,65.54
2018-12-25T07:53:35.834Z,65.57
2018-12-25T07:55:55.100Z,65.59
2018-12-25T07:58:14.940Z,65.53
2018-12-25T08:00:34.157Z,65.50
2018-12-25T08:02:56.018Z,65.44
2018-12-25T08:05:14.659Z,65.40
2018-12-25T08:07:33.889Z,65.36
2018-12-25T08:09:57.355Z,65.38
2018-12-25T08:12:17.108Z,65.39
2018-12-25T08:14:36.643Z,65.37
2018-12-25T08:16:55.978Z,65.36
2018-12-25T08:19:16.559Z,65.36
2018-12-25T08:21:35.839Z,65.39
2018-12-25T08:23:55.815Z,65.41
2018-12-25T08:26:15.245Z,65.46
2018-12-25T08:28:35.228Z,65.54
2018-12-25T08:30:55.817Z,65.60
2018-12-25T08:33:15.649Z,65.67
2018-12-25T08:35:34.591Z,65.75
2018-12-25T08:37:53.952Z,65.83
2018-12-25T08:40:13.393Z,65.91
2018-12-25T08:42:33.135Z,65.94
2018-12-25T08:44:52.564Z,65.94
2018-12-25T08:47:12.261Z,65.99
2018-12-25T08:49:32.109Z,66.03
2018-12-25T08:51:52.182Z,66.08
2018-12-25T08:54:11.951Z,66.07
2018-12-25T08:56:31.165Z,66.08
2018-12-25T08:58:50.125Z,66.08
2018-12-25T09:01:09.639Z,66.12
2018-12-25T09:03:28.721Z,66.15
2018-12-25T09:05:48.197Z,66.22
2018-12-25T09:08:07.921Z,66.32
2018-12-25T09:10:27.585Z,66.46
2018-12-25T09:12:46.748Z,66.54
2018-12-25T09:15:06.272Z,66.60
2018-12-25T09:17:25.563Z,66.72
2018-12-25T09:19:44.676Z,66.83
2018-12-25T09:22:04.300Z,66.92
2018-12-25T09:24:23.982Z,67.02
2018-12-25T09:26:44.238Z,67.04
2018-12-25T09:29:03.721Z,67.07
2018-12-25T09:31:24.028Z,67.07
2018-12-25T09:33:43.657Z,67.04
2018-12-25T09:36:03.439Z,67.05
2018-12-25T09:38:23.338Z,67.01
2018-12-25T09:40:43.050Z,66.99
2018-12-25T09:43:02.564Z,66.97
2018-12-25T09:45:21.936Z,66.95
2018-12-25T09:47:41.281Z,66.95
2018-12-25T09:50:00.752Z,66.98
2018-12-25T09:52:20.278Z,66.96
2018-12-25T09:54:39.901Z,67.00
2018-12-25T09:56:59.061Z,67.00
2018-12-25T09:59:18.270Z,67.04
2018-12-25T10:01:37.981Z,67.12
2018-12-25T10:03:57.543Z,67.17
2018-12-25T10:06:17.014Z,67.19
2018-12-25T10:08:36.863Z,67.19
2018-12-25T10:10:56.792Z,67.14
2018-12-25T10:13:16.529Z,67.08
2018-12-25T10:15:36.193Z,67.03
2018-12-25T10:17:55.523Z,67.00
2018-12-25T10:20:15.552Z,66.94
2018-12-25T10:22:33.576Z,66.92
2018-12-25T10:24:52.718Z,67.00
2018-12-25T10:27:12.228Z,67.05
2018-12-25T10:29:35.376Z,67.06
2018-12-25T10:32:07.725Z,67.07
2018-12-25T10:34:27.100Z,67.08
2018-12-25T10:36:46.601Z,67.08
2018-12-25T10:39:30.785Z,67.15
2018-12-25T10:41:29.541Z,67.19
2018-12-25T10:43:48.880Z,67.26
2018-12-25T10:46:08.357Z,67.24
2018-12-25T10:48:26.688Z,67.23
2018-12-25T10:50:46.555Z,67.22
2018-12-25T10:53:04.904Z,67.18
2018-12-25T10:55:24.033Z,67.15
2018-12-25T10:57:43.125Z,67.10
2018-12-25T11:00:02.436Z,67.06
2018-12-25T11:02:21.900Z,67.05
2018-12-25T11:04:41.811Z,67.00
2018-12-25T11:07:01.384Z,66.96
2018-12-25T11:09:21.097Z,66.93
2018-12-25T11:11:40.531Z,66.89
2018-12-25T11:14:00.208Z,66.87
2018-12-25T11:16:19.899Z,66.84
2018-12-25T11:18:39.212Z,66.80
2018-12-25T11:20:58.796Z,66.82
2018-12-25T11:23:18.105Z,66.81
2018-12-25T11:25:38.288Z,66.77
2018-12-25T11:27:58.163Z,66.74
2018-12-25T11:30:17.545Z,66.64
2018-12-25T11:32:36.742Z,66.55
2018-12-25T11:34:56.074Z,66.53
2018-12-25T11:37:15.717Z,66.52
2018-12-25T11:39:35.272Z,66.48
2018-12-25T11:41:54.491Z,66.44
2018-12-25T11:44:13.903Z,66.46
2018-12-25T11:46:32.914Z,66.45
2018-12-25T11:48:52.851Z,66.35
2018-12-25T11:51:13.677Z,66.25
2018-12-25T11:53:33.224Z,66.11
2018-12-25T11:55:52.453Z,66.00
2018-12-25T11:58:12.182Z,65.90
2018-12-25T12:00:32.199Z,65.83
2018-12-25T12:02:52.626Z,65.79
2018-12-25T12:05:12.271Z,65.75
2018-12-25T12:07:31.740Z,65.75
2018-12-25T12:09:51.160Z,65.76
2018-12-25T12:12:11.095Z,65.73
2018-12-25T12:14:30.504Z,65.72
2018-12-25T12:16:50.201Z,65.68
2018-12-25T12:19:09.861Z,65.59
2018-12-25T12:21:29.853Z,65.48
2018-12-25T12:23:50.055Z,65.38
2018-12-25T12:26:10.014Z,65.33
2018-12-25T12:28:29.682Z,65.30
2018-12-25T12:30:49.559Z,65.21
2018-12-25T12:33:08.871Z,65.13
2018-12-25T12:35:28.882Z,65.07
2018-12-25T12:37:48.656Z,64.99
2018-12-25T12:40:08.731Z,64.87
2018-12-25T12:42:28.270Z,64.81
2018-12-25T12:44:50.321Z,64.68
2018-12-25T12:47:09.658Z,64.61
2018-12-25T12:49:28.731Z,64.53
2018-12-25T12:51:50.731Z,64.51
2018-12-25T12:54:10.740Z,64.48
2018-12-25T12:56:30.544Z,64.42
2018-12-25T12:58:49.748Z,64.32
2018-12-25T13:01:09.393Z,64.23
2018-12-25T13:03:29.077Z,64.17
2018-12-25T13:05:48.471Z,64.08
2018-12-25T13:08:08.831Z,63.97
2018-12-25T13:10:27.934Z,63.94
2018-12-25T13:12:47.441Z,63.82
2018-12-25T13:15:06.790Z,63.78
2018-12-25T13:17:26.427Z,63.70
2018-12-25T13:19:46.842Z,63.64
2018-12-25T13:22:07.777Z,63.42
2018-12-25T13:24:29.625Z,63.25
2018-12-25T13:26:49.030Z,63.12
2018-12-25T13:29:09.092Z,63.07
2018-12-25T13:31:29.058Z,63.03
2018-12-25T13:33:48.499Z,63.02
2018-12-25T13:36:07.945Z,63.00
2018-12-25T13:38:27.502Z,62.91
2018-12-25T13:40:45.533Z,62.77
2018-12-25T13:43:09.054Z,62.66
2018-12-25T13:45:28.692Z,62.65
2018-12-25T13:47:47.872Z,62.66
2018-12-25T13:50:08.495Z,62.58
2018-12-25T13:52:28.328Z,62.55
2018-12-25T13:54:47.372Z,62.49
2018-12-25T13:57:07.018Z,62.48
2018-12-25T13:59:26.805Z,62.50
2018-12-25T14:01:46.254Z,62.53
2018-12-25T14:04:05.683Z,62.55
2018-12-25T14:06:25.480Z,62.57
2018-12-25T14:08:45.059Z,62.53
2018-12-25T14:11:04.361Z,62.44
2018-12-25T14:13:23.430Z,62.33
2018-12-25T14:15:42.682Z,62.25
2018-12-25T14:18:01.803Z,62.18
2018-12-25T14:20:21.852Z,62.12
2018-12-25T14:22:41.393Z,62.08
2018-12-25T14:24:59.378Z,62.01
2018-12-25T14:27:19.116Z,61.94
2018-12-25T14:29:38.969Z,61.86
2018-12-25T14:31:57.087Z,61.85
2018-12-25T14:34:16.687Z,61.79
2018-12-25T14:36:36.125Z,61.80
2018-12-25T14:38:56.057Z,61.74
2018-12-25T14:41:15.674Z,61.65
2018-12-25T14:43:35.489Z,61.66
2018-12-25T14:45:55.166Z,61.50
2018-12-25T14:48:14.916Z,61.45
2018-12-25T14:50:34.354Z,61.49
2018-12-25T14:52:54.365Z,61.39
2018-12-25T14:55:14.282Z,61.39
2018-12-25T14:57:34.077Z,61.42
2018-12-25T14:59:51.984Z,61.45
2018-12-25T15:02:11.451Z,61.41
2018-12-25T15:04:30.621Z,61.45
2018-12-25T15:06:48.596Z,61.49
2018-12-25T15:09:07.698Z,61.54
2018-12-25T15:11:27.319Z,61.54
2018-12-25T15:13:46.905Z,61.54
2018-12-25T15:16:06.465Z,61.55
2018-12-25T15:18:26.023Z,61.53
2018-12-25T15:20:45.122Z,61.48
2018-12-25T15:23:04.313Z,61.48
2018-12-25T15:25:23.623Z,61.50
2018-12-25T15:27:42.857Z,61.53
2018-12-25T15:30:01.855Z,61.57
2018-12-25T15:32:21.394Z,61.59
2018-12-25T15:34:42.135Z,61.64
2018-12-25T15:37:02.797Z,61.67
2018-12-25T15:39:22.486Z,61.76
2018-12-25T15:41:41.864Z,61.83
2018-12-25T15:44:01.102Z,61.86
2018-12-25T15:46:20.671Z,61.88
2018-12-25T15:48:39.875Z,61.96
2018-12-25T15:50:59.065Z,62.08
2018-12-25T15:53:19.675Z,62.12
2018-12-25T15:55:39.301Z,62.15
2018-12-25T15:57:59.206Z,62.18
2018-12-25T16:00:19.564Z,62.25
2018-12-25T16:02:38.757Z,62.33
2018-12-25T16:04:58.389Z,62.42
2018-12-25T16:07:17.426Z,62.48
2018-12-25T16:09:36.875Z,62.52
2018-12-25T16:11:56.727Z,62.59
2018-12-25T16:14:16.104Z,62.62
2018-12-25T16:16:35.246Z,62.63
2018-12-25T16:18:55.124Z,62.57
2018-12-25T16:21:15.096Z,62.49
2018-12-25T16:23:35.629Z,62.35
2018-12-25T16:25:55.610Z,62.25
2018-12-25T16:28:13.754Z,62.23
2018-12-25T16:30:33.154Z,62.17
2018-12-25T16:32:52.778Z,62.09
2018-12-25T16:35:11.045Z,62.11
2018-12-25T16:37:30.430Z,62.25
2018-12-25T16:39:50.036Z,62.41
2018-12-25T16:42:09.458Z,62.48
2018-12-25T16:44:29.078Z,62.51
2018-12-25T16:46:48.569Z,62.60
2018-12-25T16:49:08.453Z,62.63
2018-12-25T16:51:28.680Z,62.68
2018-12-25T16:53:53.510Z,62.69
2018-12-25T16:56:08.854Z,62.74
2018-12-25T16:58:28.518Z,62.70
2018-12-25T17:00:48.322Z,62.67
2018-12-25T17:03:07.751Z,62.62
2018-12-25T17:07:47.059Z,62.67
2018-12-25T17:10:34.398Z,62.81
2018-12-25T17:12:53.610Z,62.92
2018-12-25T17:15:13.354Z,63.10
2018-12-25T17:17:32.805Z,63.24
2018-12-25T17:19:50.904Z,63.32
2018-12-25T17:22:10.190Z,63.38
2018-12-25T17:24:30.019Z,63.37
2018-12-25T17:26:48.232Z,63.36
2018-12-25T17:29:07.470Z,63.37
2018-12-25T17:31:27.238Z,63.37
2018-12-25T17:33:35.099Z,63.36
2018-12-25T17:35:54.879Z,63.37
2018-12-25T17:38:14.364Z,63.45
2018-12-25T17:40:34.075Z,63.56
2018-12-25T17:42:53.902Z,63.59
2018-12-25T17:45:13.337Z,63.60
2018-12-25T17:47:32.934Z,63.61
2018-12-25T17:49:52.819Z,63.62
2018-12-25T17:52:12.714Z,63.62
2018-12-25T17:54:31.783Z,63.61
2018-12-25T17:56:51.514Z,63.51
2018-12-25T17:59:10.660Z,63.38
2018-12-25T18:01:30.643Z,63.26
2018-12-25T18:03:51.418Z,63.13
2018-12-25T18:06:11.822Z,63.02
2018-12-25T18:08:19.616Z,62.92
2018-12-25T18:10:39.106Z,62.86
2018-12-25T18:12:58.271Z,62.79
2018-12-25T18:15:17.719Z,62.80
2018-12-25T18:17:25.501Z,62.78
2018-12-25T18:19:44.994Z,62.82
2018-12-25T18:22:04.522Z,62.92
2018-12-25T18:24:24.727Z,63.09
2018-12-25T18:26:44.400Z,63.20
2018-12-25T18:29:04.354Z,63.29
2018-12-25T18:31:23.685Z,63.27
2018-12-25T18:33:43.155Z,63.24
2018-12-25T18:36:02.644Z,63.18
2018-12-25T18:38:22.192Z,63.11
2018-12-25T18:40:41.255Z,63.12
2018-12-25T18:43:00.568Z,63.18
2018-12-25T18:45:20.940Z,63.26
2018-12-25T18:47:40.936Z,63.29
2018-12-25T18:50:00.210Z,63.33
2018-12-25T18:52:20.395Z,63.33
2018-12-25T18:54:39.810Z,63.28
2018-12-25T18:56:59.459Z,63.26
2018-12-25T18:59:19.877Z,63.27
2018-12-25T19:01:39.419Z,63.23
2018-12-25T19:03:58.516Z,63.15
2018-12-25T19:06:18.148Z,63.17
2018-12-25T19:08:37.753Z,63.11
2018-12-25T19:10:57.232Z,63.16
2018-12-25T19:13:16.490Z,63.23
2018-12-25T19:15:36.590Z,63.35
2018-12-25T19:17:56.947Z,63.45
2018-12-25T19:20:16.056Z,63.47
2018-12-25T19:22:35.524Z,63.42
2018-12-25T19:24:55.315Z,63.39
2018-12-25T19:27:14.486Z,63.43
2018-12-25T19:29:33.875Z,63.46
2018-12-25T19:31:53.644Z,63.47
2018-12-25T19:34:12.791Z,63.46
2018-12-25T19:36:32.517Z,63.43
2018-12-25T19:38:51.636Z,63.47
2018-12-25T19:41:11.155Z,63.63
2018-12-25T19:43:31.098Z,63.78
2018-12-25T19:46:07.047Z,63.86
2018-12-25T19:48:28.661Z,63.91
2018-12-25T19:51:08.595Z,63.88
2018-12-25T19:53:19.016Z,63.79
2018-12-25T19:55:30.580Z,63.68
2018-12-25T19:58:21.505Z,63.60
2018-12-25T20:00:40.802Z,63.52
2018-12-25T20:03:07.829Z,63.44
2018-12-25T20:08:59.888Z,63.46
2018-12-25T20:11:41.083Z,63.45
2018-12-25T20:17:17.503Z,63.40
2018-12-25T20:23:10.166Z,63.47
2018-12-25T20:26:40.933Z,63.42
2018-12-25T20:29:22.154Z,63.35
2018-12-25T20:32:01.172Z,63.29
2018-12-25T20:34:59.135Z,63.27
2018-12-25T20:37:52.518Z,63.26
2018-12-25T20:41:11.534Z,63.29
2018-12-25T20:44:21.321Z,63.37
2018-12-25T20:53:19.461Z,63.35
2018-12-25T21:08:32.338Z,63.27
2018-12-25T21:14:19.439Z,63.58
2018-12-25T21:17:33.973Z,63.58
2018-12-25T21:20:12.852Z,63.63
2018-12-25T21:22:58.019Z,63.67
2018-12-25T21:25:54.917Z,63.74
2018-12-25T21:28:21.079Z,63.83
2018-12-25T21:30:58.879Z,63.90
2018-12-25T21:33:27.467Z,64.02
2018-12-25T21:36:00.244Z,64.16
2018-12-25T21:38:21.423Z,64.20
2018-12-25T21:40:48.328Z,64.13
2018-12-25T21:43:19.433Z,64.03
2018-12-25T21:45:39.728Z,63.90
2018-12-25T21:47:59.381Z,63.77
2018-12-25T21:50:20.793Z,63.73
2018-12-25T21:52:41.980Z,63.73
2018-12-25T21:55:02.266Z,63.78
2018-12-25T21:57:42.032Z,63.78
2018-12-25T21:59:57.877Z,63.83
2018-12-25T22:02:17.524Z,64.02
2018-12-25T22:04:40.457Z,64.23
2018-12-25T22:07:08.806Z,64.40
2018-12-25T22:09:28.272Z,64.50
2018-12-25T22:11:47.930Z,64.55
2018-12-25T22:14:08.611Z,64.54
2018-12-25T22:16:28.422Z,64.54
2018-12-25T22:18:48.052Z,64.61
2018-12-25T22:21:08.417Z,64.69
2018-12-25T22:23:31.134Z,64.69
2018-12-25T22:26:11.309Z,64.76
2018-12-25T22:28:31.216Z,64.79
2018-12-25T22:30:51.166Z,64.81
2018-12-25T22:33:11.929Z,64.84
2018-12-25T22:35:33.086Z,64.81
2018-12-25T22:37:52.803Z,64.77
2018-12-25T22:40:13.953Z,64.74
2018-12-25T22:42:33.557Z,64.70
2018-12-25T22:44:54.175Z,64.69
2018-12-25T22:47:13.401Z,64.73
2018-12-25T22:52:17.944Z,64.81
2018-12-25T22:54:37.215Z,64.86
2018-12-25T22:56:58.665Z,64.87
2018-12-25T22:59:19.180Z,64.98
2018-12-25T23:02:08.056Z,65.05
2018-12-25T23:04:29.324Z,65.12
2018-12-25T23:06:51.176Z,65.15
2018-12-25T23:09:14.346Z,65.24
2018-12-25T23:11:35.652Z,65.31
2018-12-25T23:13:59.102Z,65.43
2018-12-25T23:16:35.035Z,65.50
2018-12-25T23:21:37.695Z,65.71
2018-12-25T23:23:58.384Z,65.78
2018-12-25T23:26:18.860Z,65.74
2018-12-25T23:28:37.945Z,65.67
2018-12-25T23:30:58.745Z,65.64
2018-12-25T23:33:46.275Z,65.56
2018-12-25T23:36:07.624Z,65.51
2018-12-25T23:38:27.997Z,65.42
2018-12-25T23:40:50.074Z,65.38
2018-12-25T23:43:16.654Z,65.39
2018-12-25T23:45:49.704Z,65.33
2018-12-25T23:48:09.183Z,65.25
2018-12-25T23:50:29.230Z,65.28
2018-12-25T23:52:49.634Z,65.41
2018-12-25T23:55:08.911Z,65.52
2018-12-25T23:57:32.891Z,65.64
